Aegean Orion — SVA2487 — position and weather

sailwx.info

Track history (hours):
 
Tides and Currents Weather Stations Pressure Air Temp Water Temp Dewpoint Dewpoint Depression Visibility Wind Speed Wind Dir Waves Ship Positions

Aegean Orion

Last reported at 2014-Oct-21 04:32 UTC. Time now 2014-Oct-21 11:53 UTC.
Position N 38°02' E 023°32'.

; draft 2.4 m.

Type: Ship. MMSI: 239550200.

Date/timePositionNaut miles runAvg speedWind from/ knotsBaromVisibWave heightAir tempDewpointWater temp
2014-Oct-21 04:32N 38°02' E 023°32'0 0.0
2014-Oct-20 15:33N 38°02' E 023°32'5 4.9
2014-Oct-20 14:33N 37°57' E 023°33'4 4.1
2014-Oct-20 13:33N 37°57' E 023°38'0 0.0
2014-Oct-20 12:33N 37°57' E 023°38'3 2.9
2014-Oct-20 11:33N 37°57' E 023°35'6 5.7
2014-Oct-20 10:33N 38°02' E 023°32'0 0.0
2014-Oct-20 09:31N 38°02' E 023°32'0 0.0
2014-Oct-20 08:33N 38°02' E 023°32'0 0.0
2014-Oct-20 07:33N 38°02' E 023°32'0 0.0
2014-Oct-20 06:33N 38°02' E 023°32'0 0.0
2014-Oct-20 05:33N 38°02' E 023°32'0 0.0
2014-Oct-20 04:33N 38°02' E 023°32'0 0.0
2014-Oct-19 07:27N 38°02' E 023°32'1 1.1
2014-Oct-19 06:33N 38°02' E 023°31'0 0.0
2014-Oct-19 05:33N 38°02' E 023°31'0 0.1
2014-Oct-19 04:33N 38°02' E 023°31'1 0.1
2014-Oct-18 15:05N 38°02' E 023°32'0 0.1
2014-Oct-18 14:33N 38°02' E 023°32'6 6.2
2014-Oct-18 13:33N 37°57' E 023°36'2 1.5
2014-Oct-18 12:33N 37°56' E 023°37'0 0.0
2014-Oct-18 11:33N 37°56' E 023°37'0 0.0
2014-Oct-18 10:33N 37°56' E 023°37'1 0.6
2014-Oct-18 09:33N 37°56' E 023°37'1 0.6
2014-Oct-18 08:33N 37°56' E 023°37'0 0.0
2014-Oct-18 07:33N 37°56' E 023°38'0 0.0
2014-Oct-18 06:33N 37°56' E 023°37'2 1.7
2014-Oct-18 05:33N 37°57' E 023°35'6 6.0
2014-Oct-18 04:33N 38°02' E 023°32'0 0.0
2014-Oct-17 15:33N 38°02' E 023°32'1 1.0
2014-Oct-17 14:33N 38°02' E 023°31'0 0.0
2014-Oct-17 13:33N 38°02' E 023°31'0 0.0
2014-Oct-17 12:33N 38°02' E 023°31'0 0.0
2014-Oct-17 11:33N 38°02' E 023°31'0 0.0
2014-Oct-17 10:33N 38°02' E 023°31'0 0.4
2014-Oct-17 09:33N 38°02' E 023°31'5 5.2
2014-Oct-17 08:33N 37°57' E 023°34'3 3.4
2014-Oct-17 07:33N 37°57' E 023°38'0 0.0
2014-Oct-17 06:33N 37°57' E 023°38'1 1.0
2014-Oct-17 05:34N 37°56' E 023°37'6 6.1
2014-Oct-17 04:33N 38°01' E 023°32'1 1.2
2014-Oct-17 03:33N 38°02' E 023°32'0 0.0
2014-Oct-16 15:27N 38°02' E 023°32'3 2.9
2014-Oct-16 14:33N 38°02' E 023°35'0 0.3
2014-Oct-16 13:33N 38°02' E 023°36'0 0.0
2014-Oct-16 12:33N 38°02' E 023°36'0 0.0
2014-Oct-16 11:33N 38°02' E 023°36'0 0.0
2014-Oct-16 10:33N 38°02' E 023°36'4 3.8
2014-Oct-16 09:33N 37°59' E 023°33'4 4.3
2014-Oct-16 08:33N 37°56' E 023°37'0 0.0
2014-Oct-16 07:33N 37°56' E 023°37'0 0.5
2014-Oct-16 06:33N 37°56' E 023°37'2 1.9
2014-Oct-16 05:33N 37°57' E 023°35'0 0.0
2014-Oct-16 04:33N 37°57' E 023°35'0 0.0
2014-Oct-16 03:33N 37°57' E 023°35'0 0.0
2014-Oct-16 02:33N 37°57' E 023°35'0 0.0
2014-Oct-16 01:33N 37°57' E 023°35'0 0.0
2014-Oct-16 00:33N 37°57' E 023°35'0 0.0
2014-Oct-15 23:33N 37°57' E 023°35'0 0.0
2014-Oct-15 22:32N 37°57' E 023°35'0 0.0
2014-Oct-15 21:33N 37°57' E 023°35'0 0.0
2014-Oct-15 20:33N 37°57' E 023°35'3 3.1
2014-Oct-15 19:34N 37°57' E 023°38'0 0.0
2014-Oct-15 18:33N 37°57' E 023°38'0 0.0
2014-Oct-15 17:33N 37°57' E 023°38'2 2.3
2014-Oct-15 16:33N 37°57' E 023°36'1 1.3
2014-Oct-15 15:33N 37°57' E 023°34'0 0.0
2014-Oct-15 14:33N 37°57' E 023°34'0 0.0
2014-Oct-15 13:33N 37°57' E 023°34'4 4.2
2014-Oct-15 12:33N 38°01' E 023°32'1 1.0
2014-Oct-15 11:33N 38°02' E 023°32'0 0.0
2014-Oct-15 10:33N 38°02' E 023°32'0 0.0
2014-Oct-15 09:33N 38°02' E 023°32'3 2.2
2014-Oct-15 08:21N 38°02' E 023°35'0 0.0
2014-Oct-15 07:33N 38°02' E 023°35'3 2.7
2014-Oct-15 06:33N 38°02' E 023°32'0 0.0
2014-Oct-15 05:33N 38°02' E 023°32'0 0.0
2014-Oct-14 15:27N 38°02' E 023°32'1 1.2
2014-Oct-14 14:33N 38°02' E 023°31'0 0.0
2014-Oct-14 13:34N 38°02' E 023°31'0 0.0
2014-Oct-14 12:33N 38°02' E 023°31'0 0.0
2014-Oct-14 11:34N 38°02' E 023°31'0 0.0
2014-Oct-14 10:33N 38°02' E 023°31'0 0.0
2014-Oct-14 09:33N 38°02' E 023°31'0 0.0
2014-Oct-14 08:33N 38°02' E 023°31'0 0.0
2014-Oct-14 07:34N 38°02' E 023°31'0 0.0
2014-Oct-14 06:34N 38°02' E 023°31'0 0.0
2014-Oct-14 05:33N 38°02' E 023°31'1 0.7
2014-Oct-14 04:34N 38°01' E 023°31'2 2.0
2014-Oct-14 03:34N 38°00' E 023°32'3 3.3
2014-Oct-14 02:33N 37°57' E 023°35'0 0.0
2014-Oct-14 01:33N 37°57' E 023°35'0 0.0
2014-Oct-14 00:33N 37°57' E 023°35'0 0.0
2014-Oct-13 23:33N 37°57' E 023°35'3 2.9
2014-Oct-13 22:31N 37°57' E 023°38'0 0.0
2014-Oct-13 21:33N 37°57' E 023°38'0 0.2
2014-Oct-13 20:33N 37°57' E 023°38'8 0.2
2014-Oct-12 11:26N 38°02' E 023°32'1 0.8
2014-Oct-12 10:33N 38°02' E 023°31'0 0.0
2014-Oct-12 09:33N 38°02' E 023°31'0 0.0
2014-Oct-12 08:33N 38°02' E 023°31'0 0.3
2014-Oct-12 07:33N 38°02' E 023°31'  
Track history (hours):
 
Tides and Currents Weather Stations Pressure Air Temp Water Temp Dewpoint Dewpoint Depression Visibility Wind Speed Wind Dir Waves Ship Positions

Aegean Orion

Last reported at 2014-Oct-21 04:32 UTC. Time now 2014-Oct-21 11:53 UTC.
Position N 38°02' E 023°32'.

; draft 2.4 m.

Type: Ship. MMSI: 239550200.

Date/timePositionNaut miles runAvg speedWind from/ knotsBaromVisibWave heightAir tempDewpointWater temp
2014-Oct-21 04:32N 38°02' E 023°32'0 0.0
2014-Oct-20 15:33N 38°02' E 023°32'5 4.9
2014-Oct-20 14:33N 37°57' E 023°33'4 4.1
2014-Oct-20 13:33N 37°57' E 023°38'0 0.0
2014-Oct-20 12:33N 37°57' E 023°38'3 2.9
2014-Oct-20 11:33N 37°57' E 023°35'6 5.7
2014-Oct-20 10:33N 38°02' E 023°32'0 0.0
2014-Oct-20 09:31N 38°02' E 023°32'0 0.0
2014-Oct-20 08:33N 38°02' E 023°32'0 0.0
2014-Oct-20 07:33N 38°02' E 023°32'0 0.0
2014-Oct-20 06:33N 38°02' E 023°32'0 0.0
2014-Oct-20 05:33N 38°02' E 023°32'0 0.0
2014-Oct-20 04:33N 38°02' E 023°32'0 0.0
2014-Oct-19 07:27N 38°02' E 023°32'1 1.1
2014-Oct-19 06:33N 38°02' E 023°31'0 0.0
2014-Oct-19 05:33N 38°02' E 023°31'0 0.1
2014-Oct-19 04:33N 38°02' E 023°31'1 0.1
2014-Oct-18 15:05N 38°02' E 023°32'0 0.1
2014-Oct-18 14:33N 38°02' E 023°32'6 6.2
2014-Oct-18 13:33N 37°57' E 023°36'2 1.5
2014-Oct-18 12:33N 37°56' E 023°37'0 0.0
2014-Oct-18 11:33N 37°56' E 023°37'0 0.0
2014-Oct-18 10:33N 37°56' E 023°37'1 0.6
2014-Oct-18 09:33N 37°56' E 023°37'1 0.6
2014-Oct-18 08:33N 37°56' E 023°37'0 0.0
2014-Oct-18 07:33N 37°56' E 023°38'0 0.0
2014-Oct-18 06:33N 37°56' E 023°37'2 1.7
2014-Oct-18 05:33N 37°57' E 023°35'6 6.0
2014-Oct-18 04:33N 38°02' E 023°32'0 0.0
2014-Oct-17 15:33N 38°02' E 023°32'1 1.0
2014-Oct-17 14:33N 38°02' E 023°31'0 0.0
2014-Oct-17 13:33N 38°02' E 023°31'0 0.0
2014-Oct-17 12:33N 38°02' E 023°31'0 0.0
2014-Oct-17 11:33N 38°02' E 023°31'0 0.0
2014-Oct-17 10:33N 38°02' E 023°31'0 0.4
2014-Oct-17 09:33N 38°02' E 023°31'5 5.2
2014-Oct-17 08:33N 37°57' E 023°34'3 3.4
2014-Oct-17 07:33N 37°57' E 023°38'0 0.0
2014-Oct-17 06:33N 37°57' E 023°38'1 1.0
2014-Oct-17 05:34N 37°56' E 023°37'6 6.1
2014-Oct-17 04:33N 38°01' E 023°32'1 1.2
2014-Oct-17 03:33N 38°02' E 023°32'0 0.0
2014-Oct-16 15:27N 38°02' E 023°32'3 2.9
2014-Oct-16 14:33N 38°02' E 023°35'0 0.3
2014-Oct-16 13:33N 38°02' E 023°36'0 0.0
2014-Oct-16 12:33N 38°02' E 023°36'0 0.0
2014-Oct-16 11:33N 38°02' E 023°36'0 0.0
2014-Oct-16 10:33N 38°02' E 023°36'4 3.8
2014-Oct-16 09:33N 37°59' E 023°33'4 4.3
2014-Oct-16 08:33N 37°56' E 023°37'0 0.0
2014-Oct-16 07:33N 37°56' E 023°37'0 0.5
2014-Oct-16 06:33N 37°56' E 023°37'2 1.9
2014-Oct-16 05:33N 37°57' E 023°35'0 0.0
2014-Oct-16 04:33N 37°57' E 023°35'0 0.0
2014-Oct-16 03:33N 37°57' E 023°35'0 0.0
2014-Oct-16 02:33N 37°57' E 023°35'0 0.0
2014-Oct-16 01:33N 37°57' E 023°35'0 0.0
2014-Oct-16 00:33N 37°57' E 023°35'0 0.0
2014-Oct-15 23:33N 37°57' E 023°35'0 0.0
2014-Oct-15 22:32N 37°57' E 023°35'0 0.0
2014-Oct-15 21:33N 37°57' E 023°35'0 0.0
2014-Oct-15 20:33N 37°57' E 023°35'3 3.1
2014-Oct-15 19:34N 37°57' E 023°38'0 0.0
2014-Oct-15 18:33N 37°57' E 023°38'0 0.0
2014-Oct-15 17:33N 37°57' E 023°38'2 2.3
2014-Oct-15 16:33N 37°57' E 023°36'1 1.3
2014-Oct-15 15:33N 37°57' E 023°34'0 0.0
2014-Oct-15 14:33N 37°57' E 023°34'0 0.0
2014-Oct-15 13:33N 37°57' E 023°34'4 4.2
2014-Oct-15 12:33N 38°01' E 023°32'1 1.0
2014-Oct-15 11:33N 38°02' E 023°32'0 0.0
2014-Oct-15 10:33N 38°02' E 023°32'0 0.0
2014-Oct-15 09:33N 38°02' E 023°32'3 2.2
2014-Oct-15 08:21N 38°02' E 023°35'0 0.0
2014-Oct-15 07:33N 38°02' E 023°35'3 2.7
2014-Oct-15 06:33N 38°02' E 023°32'0 0.0
2014-Oct-15 05:33N 38°02' E 023°32'0 0.0
2014-Oct-14 15:27N 38°02' E 023°32'1 1.2
2014-Oct-14 14:33N 38°02' E 023°31'0 0.0
2014-Oct-14 13:34N 38°02' E 023°31'0 0.0
2014-Oct-14 12:33N 38°02' E 023°31'0 0.0
2014-Oct-14 11:34N 38°02' E 023°31'0 0.0
2014-Oct-14 10:33N 38°02' E 023°31'0 0.0
2014-Oct-14 09:33N 38°02' E 023°31'0 0.0
2014-Oct-14 08:33N 38°02' E 023°31'0 0.0
2014-Oct-14 07:34N 38°02' E 023°31'0 0.0
2014-Oct-14 06:34N 38°02' E 023°31'0 0.0
2014-Oct-14 05:33N 38°02' E 023°31'1 0.7
2014-Oct-14 04:34N 38°01' E 023°31'2 2.0
2014-Oct-14 03:34N 38°00' E 023°32'3 3.3
2014-Oct-14 02:33N 37°57' E 023°35'0 0.0
2014-Oct-14 01:33N 37°57' E 023°35'0 0.0
2014-Oct-14 00:33N 37°57' E 023°35'0 0.0
2014-Oct-13 23:33N 37°57' E 023°35'3 2.9
2014-Oct-13 22:31N 37°57' E 023°38'0 0.0
2014-Oct-13 21:33N 37°57' E 023°38'0 0.2
2014-Oct-13 20:33N 37°57' E 023°38'8 0.2
2014-Oct-12 11:26N 38°02' E 023°32'1 0.8
2014-Oct-12 10:33N 38°02' E 023°31'0 0.0
2014-Oct-12 09:33N 38°02' E 023°31'0 0.0
2014-Oct-12 08:33N 38°02' E 023°31'0 0.3
2014-Oct-12 07:33N 38°02' E 023°31'  

Dump ship's entire track history